Terminal Aerodrome Forecast
Issued by NWS

Home | Current Version | Previous Version | Text Only | Print | Product List | Glossary On
Versions: 1 2 3 4 5 6 7 8 9 10 11 12
000
FTUS41 KCAR 050531
TAFHUL
TAF
KHUL 050531Z 0506/0606 VRB03KT P6SM SKC
     FM051600 29006KT P6SM VCTS BKN050CB
     FM051800 29008KT P6SM BKN050
     FM052200 VRB03KT P6SM BKN250=

USA.gov is the U.S. government's official web portal to all federal, state and local government web resources and services.